Time;durP1;ratioP1;P1;durP2;ratioP2;P2;SDS_P1;SDS_P2;PMS_P1;PMS_P2;Temp;Humidity;BMP_temperature;BMP_pressure;BME280_temperature;BME280_humidity;BME280_pressure;Samples;Min_cycle;Max_cycle;Signal;HPM_P1;HPM_P2
2022/01/27 00:00:38;;;;;;;32.60;8.70;;;5.20;99.90;;;;;;5096842;28;20039;-77
2022/01/27 00:03:28;;;;;;;28.95;9.02;;;5.20;99.90;;;;;;5094941;28;20023;-77
2022/01/27 00:05:57;;;;;;;27.75;9.93;;;5.30;99.90;;;;;;5094997;28;20397;-77
2022/01/27 00:08:30;;;;;;;30.77;9.73;;;5.30;99.90;;;;;;5092383;28;20020;-77
2022/01/27 00:11:02;;;;;;;26.63;8.77;;;5.20;99.90;;;;;;5095141;28;20032;-77
2022/01/27 00:13:31;;;;;;;23.48;8.65;;;5.30;99.90;;;;;;5095088;28;20031;-77
2022/01/27 00:16:11;;;;;;;26.35;9.20;;;5.30;99.90;;;;;;5094762;28;20017;-77
2022/01/27 00:18:36;;;;;;;29.98;9.15;;;5.30;99.90;;;;;;5095835;28;20016;-77
2022/01/27 00:21:02;;;;;;;26.58;8.43;;;5.30;99.90;;;;;;5097359;28;20039;-77
2022/01/27 00:23:28;;;;;;;26.00;9.05;;;5.30;99.90;;;;;;5096536;28;20027;-77
2022/01/27 00:25:53;;;;;;;24.77;8.93;;;5.30;99.90;;;;;;5094564;28;20401;-77
2022/01/27 00:28:19;;;;;;;18.85;7.45;;;5.30;99.90;;;;;;5094764;28;20027;-78
2022/01/27 00:30:45;;;;;;;23.48;8.52;;;5.30;99.90;;;;;;5096167;28;20097;-77
2022/01/27 00:33:10;;;;;;;26.20;9.10;;;5.30;99.90;;;;;;5096463;28;20466;-77
2022/01/27 00:35:36;;;;;;;28.13;8.23;;;5.30;99.90;;;;;;5095915;28;20023;-77
2022/01/27 00:38:02;;;;;;;23.13;7.32;;;5.30;99.90;;;;;;5096190;28;20032;-77
2022/01/27 00:40:28;;;;;;;23.38;8.90;;;5.30;99.90;;;;;;5095352;28;20073;-77
2022/01/27 00:42:54;;;;;;;19.63;7.45;;;5.30;99.90;;;;;;5094472;28;20013;-77
2022/01/27 00:45:20;;;;;;;29.63;8.32;;;5.30;99.90;;;;;;5094149;28;20027;-77
2022/01/27 00:47:46;;;;;;;20.13;7.68;;;5.40;99.90;;;;;;5094593;28;20024;-77
2022/01/27 00:50:12;;;;;;;25.25;8.10;;;5.40;99.90;;;;;;5094521;28;20035;-77
2022/01/27 00:52:45;;;;;;;22.55;8.43;;;5.40;99.90;;;;;;5095433;28;20039;-76
2022/01/27 00:55:11;;;;;;;19.23;7.13;;;5.30;99.90;;;;;;5095818;28;20016;-80
2022/01/27 00:58:00;;;;;;;18.10;6.40;;;5.40;99.90;;;;;;5095431;28;20382;-79
2022/01/27 01:00:40;;;;;;;26.13;8.43;;;5.30;99.90;;;;;;5095835;28;20078;-79
2022/01/27 01:03:11;;;;;;;25.48;8.02;;;5.30;99.90;;;;;;5096314;28;20019;-79
2022/01/27 01:09:07;;;;;;;23.85;7.28;;;5.40;99.90;;;;;;5095867;28;20036;-79
2022/01/27 01:16:30;;;;;;;22.20;7.38;;;5.30;99.90;;;;;;5095525;28;20066;-79
2022/01/27 01:19:09;;;;;;;17.10;6.57;;;5.30;99.90;;;;;;5095462;28;20446;-79
2022/01/27 01:29:21;;;;;;;20.73;6.85;;;5.30;99.90;;;;;;5094671;28;20024;-79
2022/01/27 01:34:32;;;;;;;20.40;7.15;;;5.40;99.90;;;;;;5075194;28;20060;-80
2022/01/27 01:37:04;;;;;;;28.58;6.78;;;5.40;99.90;;;;;;5075574;28;20091;-80
2022/01/27 01:39:34;;;;;;;21.90;7.13;;;5.30;99.90;;;;;;5091138;28;20413;-80
2022/01/27 01:42:06;;;;;;;22.65;7.47;;;5.30;99.90;;;;;;5075726;28;20066;-79
2022/01/27 01:44:32;;;;;;;22.75;7.75;;;5.30;99.90;;;;;;5075776;28;20052;-80
2022/01/27 01:46:58;;;;;;;18.23;7.03;;;5.30;99.90;;;;;;5075638;28;20437;-80
2022/01/27 01:49:26;;;;;;;20.65;7.97;;;5.30;99.90;;;;;;5075031;28;20105;-80
2022/01/27 01:51:57;;;;;;;20.52;7.18;;;5.30;99.90;;;;;;5074042;28;20033;-79
2022/01/27 01:54:24;;;;;;;21.48;7.30;;;5.40;99.90;;;;;;5074530;28;20024;-79
2022/01/27 01:56:50;;;;;;;18.80;7.32;;;5.30;99.90;;;;;;5088562;28;20024;-79
2022/01/27 01:59:17;;;;;;;18.75;7.20;;;5.40;99.90;;;;;;5094696;28;20069;-79
2022/01/27 02:01:42;;;;;;;21.80;7.50;;;5.30;99.90;;;;;;5094544;28;20027;-79
2022/01/27 02:04:10;;;;;;;27.88;8.05;;;5.30;99.90;;;;;;5094862;28;20386;-80
2022/01/27 02:06:45;;;;;;;21.75;6.82;;;5.30;99.90;;;;;;5094312;28;20027;-80
2022/01/27 02:09:49;;;;;;;25.10;8.70;;;5.20;99.90;;;;;;5094645;28;20095;-80
2022/01/27 02:20:10;;;;;;;21.48;8.45;;;5.30;99.90;;;;;;5094741;28;20042;-79
2022/01/27 02:22:36;;;;;;;26.65;8.50;;;5.20;99.90;;;;;;5094502;28;20028;-77
2022/01/27 02:25:04;;;;;;;22.83;7.60;;;5.20;99.90;;;;;;5092251;28;20497;-77
2022/01/27 02:27:30;;;;;;;26.85;8.50;;;5.20;99.90;;;;;;5092599;28;20035;-77
2022/01/27 02:29:56;;;;;;;18.30;6.78;;;5.20;99.90;;;;;;5092893;28;20030;-77
2022/01/27 02:32:24;;;;;;;26.33;9.00;;;5.20;99.90;;;;;;5092792;28;20385;-77
2022/01/27 02:34:50;;;;;;;29.57;9.43;;;5.20;99.90;;;;;;5092445;28;20024;-77
2022/01/27 02:37:15;;;;;;;19.92;6.15;;;5.20;99.90;;;;;;5093000;28;20062;-79
2022/01/27 02:39:41;;;;;;;22.38;6.80;;;5.10;99.90;;;;;;5093010;28;20048;-79
2022/01/27 02:42:21;;;;;;;25.55;8.52;;;5.20;99.90;;;;;;5094005;28;20024;-78
2022/01/27 02:45:01;;;;;;;23.00;9.27;;;5.20;99.90;;;;;;5092823;28;20036;-79
2022/01/27 02:47:27;;;;;;;32.22;7.97;;;5.10;99.90;;;;;;5094212;28;20047;-79
2022/01/27 02:49:52;;;;;;;24.80;9.05;;;5.10;99.90;;;;;;5094031;28;20056;-79
2022/01/27 02:52:18;;;;;;;29.88;8.98;;;5.20;99.90;;;;;;5092206;28;20032;-79
2022/01/27 02:54:44;;;;;;;22.38;7.32;;;5.20;99.90;;;;;;5092494;28;20082;-79
2022/01/27 02:57:10;;;;;;;22.77;8.43;;;5.20;99.90;;;;;;5094234;28;20023;-79
2022/01/27 02:59:35;;;;;;;25.25;8.65;;;5.20;99.90;;;;;;5092719;28;20016;-79
2022/01/27 03:02:01;;;;;;;22.17;7.90;;;6.10;99.90;;;;;;5092267;28;20496;-79
2022/01/27 03:04:30;;;;;;;25.10;7.85;;;5.20;99.90;;;;;;5092745;28;20509;-79
2022/01/27 03:06:56;;;;;;;24.10;7.90;;;5.30;99.90;;;;;;5092451;28;20027;-79
2022/01/27 03:09:22;;;;;;;23.08;8.98;;;5.20;99.90;;;;;;5092352;28;20028;-79
2022/01/27 03:11:52;;;;;;;21.45;8.20;;;5.30;99.90;;;;;;5092539;28;20550;-79
2022/01/27 03:14:21;;;;;;;22.40;9.10;;;5.20;99.90;;;;;;5092968;28;20142;-79
2022/01/27 03:16:47;;;;;;;24.02;8.85;;;5.30;99.90;;;;;;5093357;28;20036;-79
2022/01/27 03:19:13;;;;;;;20.70;7.97;;;5.30;99.90;;;;;;5094343;28;20028;-79
2022/01/27 03:21:39;;;;;;;22.65;8.63;;;5.30;99.90;;;;;;5093814;28;20074;-79
2022/01/27 03:24:05;;;;;;;31.95;8.50;;;5.30;99.90;;;;;;5094563;28;20020;-79
2022/01/27 03:26:31;;;;;;;24.65;9.07;;;5.20;99.90;;;;;;5094131;28;20100;-79
2022/01/27 03:28:58;;;;;;;24.65;8.60;;;5.30;99.90;;;;;;5095971;28;20028;-79
2022/01/27 03:31:24;;;;;;;24.08;7.60;;;5.20;99.90;;;;;;5096530;28;20020;-79
2022/01/27 03:33:49;;;;;;;21.95;7.45;;;5.30;99.90;;;;;;5097750;28;20531;-79
2022/01/27 03:36:16;;;;;;;26.20;8.85;;;5.30;99.90;;;;;;5096704;28;20024;-79
2022/01/27 03:38:42;;;;;;;27.88;8.30;;;5.20;99.90;;;;;;5096303;28;20022;-79
2022/01/27 03:41:09;;;;;;;25.15;7.15;;;5.20;99.90;;;;;;5097372;28;20488;-79
2022/01/27 03:43:36;;;;;;;25.33;7.25;;;5.20;99.90;;;;;;5097280;28;20024;-79
2022/01/27 03:46:03;;;;;;;26.65;8.88;;;5.20;99.90;;;;;;5096885;28;20516;-79
2022/01/27 03:48:29;;;;;;;29.70;8.00;;;5.10;99.90;;;;;;5101174;28;20028;-79
2022/01/27 03:50:54;;;;;;;19.17;7.20;;;8.50;99.90;;;;;;5098637;28;20381;-79
2022/01/27 03:53:20;;;;;;;20.45;7.70;;;5.10;99.90;;;;;;5095977;28;20035;-79
2022/01/27 03:55:46;;;;;;;33.47;8.85;;;5.20;99.90;;;;;;5096140;28;20165;-79
2022/01/27 03:58:11;;;;;;;24.80;7.20;;;5.20;99.90;;;;;;5097984;28;20025;-79
2022/01/27 04:00:37;;;;;;;27.73;8.88;;;5.10;99.90;;;;;;5096596;28;20020;-79
2022/01/27 04:03:10;;;;;;;24.30;7.90;;;5.10;99.90;;;;;;5096757;28;20489;-79
2022/01/27 04:05:40;;;;;;;30.58;8.60;;;5.20;99.90;;;;;;5096674;28;20027;-79
2022/01/27 04:08:08;;;;;;;29.80;8.05;;;5.20;99.90;;;;;;5096491;28;20497;-79
2022/01/27 04:10:33;;;;;;;25.75;7.45;;;5.20;99.90;;;;;;5096018;28;20027;-79
2022/01/27 04:13:00;;;;;;;21.08;7.20;;;5.20;99.90;;;;;;5097656;28;20024;-79
2022/01/27 04:15:25;;;;;;;23.58;8.38;;;5.20;99.90;;;;;;5095869;28;20036;-79
2022/01/27 04:17:51;;;;;;;24.42;8.43;;;5.20;99.90;;;;;;5096246;28;20373;-79
2022/01/27 04:20:18;;;;;;;21.88;7.20;;;5.30;99.90;;;;;;5096298;28;20024;-79
2022/01/27 04:22:43;;;;;;;26.38;8.07;;;5.20;99.90;;;;;;5096082;28;20016;-79
2022/01/27 04:25:11;;;;;;;25.65;8.63;;;5.20;99.90;;;;;;5096076;28;20469;-79
2022/01/27 04:27:39;;;;;;;25.98;6.50;;;5.20;99.90;;;;;;5097517;28;20020;-79
2022/01/27 04:30:11;;;;;;;23.88;8.88;;;5.20;99.90;;;;;;5096362;28;20028;-79
2022/01/27 04:32:43;;;;;;;28.33;8.98;;;5.20;99.90;;;;;;5097473;28;20030;-79
2022/01/27 04:35:14;;;;;;;24.80;7.90;;;5.30;99.90;;;;;;5095974;28;20033;-79
2022/01/27 04:37:49;;;;;;;23.63;7.43;;;5.30;99.90;;;;;;5095784;28;20427;-79
2022/01/27 04:40:16;;;;;;;23.67;7.38;;;5.20;99.90;;;;;;5095853;28;20046;-79
2022/01/27 04:42:55;;;;;;;25.98;8.15;;;5.20;99.90;;;;;;5095257;28;20085;-79
2022/01/27 04:45:25;;;;;;;19.75;7.22;;;5.30;99.90;;;;;;5095267;28;20052;-79
2022/01/27 04:47:57;;;;;;;33.30;7.70;;;5.30;99.90;;;;;;5096930;28;20366;-79
2022/01/27 04:50:23;;;;;;;27.05;8.52;;;5.40;99.90;;;;;;5097213;28;20119;-79
2022/01/27 04:52:51;;;;;;;25.63;8.52;;;5.30;99.90;;;;;;5095585;28;20126;-79
2022/01/27 04:55:20;;;;;;;28.83;8.75;;;5.40;99.90;;;;;;5095447;28;20020;-79
2022/01/27 04:57:46;;;;;;;25.50;8.55;;;5.40;99.90;;;;;;5096407;28;20103;-79
2022/01/27 05:00:15;;;;;;;24.67;8.73;;;5.40;99.90;;;;;;5095027;28;20016;-79
2022/01/27 05:02:48;;;;;;;;;;;5.40;99.90;;;;;;5096115;28;20031;-79
2022/01/27 05:05:14;;;;;;;19.65;6.10;;;5.40;99.90;;;;;;5095209;28;19963;-79
2022/01/27 05:07:40;;;;;;;24.65;5.47;;;5.50;99.90;;;;;;5095939;28;20106;-79
2022/01/27 05:10:15;;;;;;;19.00;5.72;;;5.50;99.90;;;;;;5094389;28;20031;-79
2022/01/27 05:12:48;;;;;;;23.63;6.38;;;5.50;99.90;;;;;;5095872;28;20052;-79
2022/01/27 05:15:14;;;;;;;22.55;7.55;;;5.50;99.90;;;;;;5094778;28;20035;-79
2022/01/27 05:17:39;;;;;;;31.17;7.68;;;5.50;99.90;;;;;;5094333;28;20067;-79
2022/01/27 05:20:06;;;;;;;26.17;6.53;;;5.50;99.90;;;;;;5094579;28;20473;-79
2022/01/27 05:22:32;;;;;;;25.48;6.53;;;5.40;99.90;;;;;;5095617;28;20085;-79
2022/01/27 05:24:58;;;;;;;16.85;5.95;;;5.50;99.90;;;;;;5094341;28;20024;-79
2022/01/27 05:27:23;;;;;;;17.33;6.32;;;5.50;99.90;;;;;;5093793;28;20032;-79
2022/01/27 05:29:51;;;;;;;16.95;5.68;;;5.50;99.90;;;;;;5093946;28;20025;-79
2022/01/27 05:32:17;;;;;;;26.15;6.97;;;5.50;99.90;;;;;;5095726;28;20031;-79
2022/01/27 05:34:43;;;;;;;23.73;7.30;;;5.50;99.90;;;;;;5094823;28;20409;-79
2022/01/27 05:37:08;;;;;;;25.65;6.55;;;5.60;99.90;;;;;;5096310;28;20084;-79
2022/01/27 05:39:34;;;;;;;21.10;6.03;;;5.50;99.90;;;;;;5095239;28;20474;-79
2022/01/27 05:41:59;;;;;;;14.77;5.78;;;5.50;99.90;;;;;;5095095;28;20024;-79
2022/01/27 05:44:25;;;;;;;24.00;6.38;;;5.60;99.90;;;;;;5095471;28;20024;-79
2022/01/27 05:46:50;;;;;;;22.08;6.03;;;5.60;99.90;;;;;;5094024;28;20021;-79
2022/01/27 05:49:16;;;;;;;23.45;6.38;;;5.70;99.90;;;;;;5093834;28;20119;-80
2022/01/27 05:51:41;;;;;;;19.98;6.90;;;5.70;99.90;;;;;;5094922;28;20101;-80
2022/01/27 05:54:07;;;;;;;19.45;5.45;;;5.70;99.90;;;;;;5095712;28;20408;-80
2022/01/27 05:56:32;;;;;;;22.58;5.85;;;5.70;99.90;;;;;;5094266;28;20028;-79
2022/01/27 05:58:58;;;;;;;30.20;7.10;;;5.70;99.90;;;;;;5096228;28;20099;-79
2022/01/27 06:01:23;;;;;;;21.05;5.43;;;5.70;99.90;;;;;;5093463;28;20016;-79
2022/01/27 06:03:49;;;;;;;23.65;6.30;;;5.80;99.90;;;;;;5094920;28;20012;-79
2022/01/27 06:06:14;;;;;;;21.73;5.97;;;5.80;99.90;;;;;;5093773;28;20028;-79
2022/01/27 06:08:40;;;;;;;20.23;5.95;;;5.80;99.90;;;;;;5094322;28;20481;-79
2022/01/27 06:11:06;;;;;;;19.50;3.75;;;5.80;99.90;;;;;;5097583;28;20020;-80
2022/01/27 06:13:31;;;;;;;25.05;5.82;;;5.90;99.90;;;;;;5094654;28;20492;-79
2022/01/27 06:15:57;;;;;;;18.23;5.05;;;5.90;99.90;;;;;;5096579;28;20477;-79
2022/01/27 06:18:23;;;;;;;18.25;4.72;;;6.00;99.90;;;;;;5093972;28;20086;-79
2022/01/27 06:20:49;;;;;;;20.20;5.13;;;6.00;99.90;;;;;;5094018;28;20020;-79
2022/01/27 06:23:14;;;;;;;17.58;4.82;;;6.00;99.90;;;;;;5095111;28;20028;-79
2022/01/27 06:25:40;;;;;;;13.85;3.90;;;6.10;99.90;;;;;;5092979;28;20073;-79
2022/01/27 06:28:06;;;;;;;17.85;5.07;;;6.10;99.90;;;;;;5095170;28;20036;-79
2022/01/27 06:30:34;;;;;;;20.30;5.65;;;6.10;99.90;;;;;;5094537;28;20032;-79
2022/01/27 06:33:02;;;;;;;20.23;4.95;;;8.50;99.90;;;;;;5095876;28;20481;-79
2022/01/27 06:35:28;;;;;;;17.50;4.63;;;6.10;99.90;;;;;;5093977;28;20024;-78
2022/01/27 06:37:53;;;;;;;15.50;4.10;;;6.20;99.90;;;;;;5094263;28;20032;-77
2022/01/27 06:40:19;;;;;;;21.65;5.07;;;6.20;99.90;;;;;;5094231;28;20024;-76
2022/01/27 06:42:45;;;;;;;18.42;4.75;;;6.30;99.90;;;;;;5092238;28;20013;-76
2022/01/27 06:45:11;;;;;;;19.15;4.90;;;6.30;99.90;;;;;;5094168;28;20070;-76
2022/01/27 06:47:37;;;;;;;20.95;4.75;;;6.30;99.90;;;;;;5093759;28;20024;-77
2022/01/27 06:50:03;;;;;;;10.85;3.80;;;6.30;99.90;;;;;;5092030;28;20399;-77
2022/01/27 06:52:28;;;;;;;19.98;4.63;;;6.40;99.90;;;;;;5092639;28;20044;-77
2022/01/27 06:54:55;;;;;;;14.35;4.70;;;6.40;99.90;;;;;;5093999;28;20035;-78
2022/01/27 06:57:22;;;;;;;18.15;4.95;;;6.40;99.90;;;;;;5092477;28;20062;-77
2022/01/27 06:59:48;;;;;;;16.40;4.15;;;6.40;99.90;;;;;;5093747;28;20385;-77
2022/01/27 07:02:14;;;;;;;12.60;4.78;;;6.40;99.90;;;;;;5092943;28;20051;-77
2022/01/27 07:04:39;;;;;;;15.55;4.72;;;6.40;99.90;;;;;;5097183;28;20063;-75
2022/01/27 07:07:05;;;;;;;17.05;5.30;;;6.40;99.90;;;;;;5098274;28;20046;-78
2022/01/27 07:09:30;;;;;;;18.48;5.00;;;6.40;99.90;;;;;;5098042;28;20493;-77
2022/01/27 07:11:56;;;;;;;25.02;5.10;;;6.40;99.90;;;;;;5099039;28;20020;-77
2022/01/27 07:14:22;;;;;;;21.05;5.95;;;6.40;99.90;;;;;;5097778;28;20035;-77
2022/01/27 07:16:47;;;;;;;12.73;4.65;;;6.40;99.90;;;;;;5097511;28;20016;-77
2022/01/27 07:19:13;;;;;;;23.48;4.78;;;6.40;99.90;;;;;;5096168;28;20016;-77
2022/01/27 07:21:39;;;;;;;17.83;5.55;;;6.40;99.90;;;;;;5094768;28;20027;-77
2022/01/27 07:24:08;;;;;;;23.95;5.50;;;6.40;99.90;;;;;;5097492;28;20520;-77
2022/01/27 07:26:34;;;;;;;13.30;4.75;;;6.40;99.90;;;;;;5098024;28;20031;-77
2022/01/27 07:29:00;;;;;;;21.75;5.45;;;6.40;99.90;;;;;;5097795;28;20020;-77
2022/01/27 07:31:25;;;;;;;20.17;5.55;;;6.40;99.90;;;;;;5097596;28;20077;-78
2022/01/27 07:33:52;;;;;;;22.35;5.45;;;6.40;99.90;;;;;;5097386;28;20030;-78
2022/01/27 07:36:19;;;;;;;21.50;6.38;;;6.40;99.90;;;;;;5096602;28;20500;-76
2022/01/27 07:38:45;;;;;;;27.40;6.53;;;6.40;99.90;;;;;;5096578;28;20013;-77
2022/01/27 07:41:15;;;;;;;26.27;7.10;;;6.50;99.90;;;;;;5097809;28;20028;-75
2022/01/27 07:43:41;;;;;;;26.90;6.72;;;6.50;99.90;;;;;;5096636;28;20016;-74
2022/01/27 07:46:07;;;;;;;19.67;5.07;;;6.50;99.90;;;;;;5097542;28;20030;-75
2022/01/27 07:48:33;;;;;;;21.98;5.35;;;6.50;99.90;;;;;;5098030;28;20059;-73
2022/01/27 07:51:02;;;;;;;21.85;5.05;;;6.50;99.90;;;;;;5095738;28;20038;-74
2022/01/27 07:53:28;;;;;;;23.58;6.28;;;6.50;99.90;;;;;;5096627;28;20035;-74
2022/01/27 07:55:53;;;;;;;22.05;5.50;;;6.50;99.90;;;;;;5096724;28;20036;-74
2022/01/27 07:58:19;;;;;;;20.88;5.72;;;6.60;99.90;;;;;;5095311;28;20038;-74
2022/01/27 08:00:44;;;;;;;25.55;6.47;;;6.60;99.90;;;;;;5097262;28;20070;-74
2022/01/27 08:03:10;;;;;;;18.80;5.47;;;6.70;99.90;;;;;;5095905;28;20469;-73
2022/01/27 08:05:36;;;;;;;19.45;5.72;;;6.70;99.90;;;;;;5095190;28;20031;-73
2022/01/27 08:08:01;;;;;;;19.10;5.47;;;6.70;99.90;;;;;;5096761;28;20461;-73
2022/01/27 08:10:27;;;;;;;21.63;4.15;;;6.70;99.90;;;;;;5096118;28;20540;-73
2022/01/27 08:12:52;;;;;;;18.50;5.22;;;6.70;99.90;;;;;;5096504;28;20028;-73
2022/01/27 08:15:19;;;;;;;22.67;4.93;;;6.70;99.90;;;;;;5094003;28;20031;-73
2022/01/27 08:17:46;;;;;;;21.25;5.35;;;6.70;99.90;;;;;;5097054;28;20596;-73
2022/01/27 08:20:12;;;;;;;19.80;5.45;;;6.70;99.90;;;;;;5096818;28;20482;-73
2022/01/27 08:22:46;;;;;;;17.20;5.25;;;6.70;99.90;;;;;;5095026;28;20024;-74
2022/01/27 08:25:12;;;;;;;14.27;4.40;;;6.80;99.90;;;;;;5094890;28;20028;-75
2022/01/27 08:27:40;;;;;;;30.95;7.22;;;6.80;99.90;;;;;;5095709;28;20047;-75
2022/01/27 08:30:06;;;;;;;22.50;7.10;;;6.80;99.90;;;;;;5095473;28;20031;-75
2022/01/27 08:35:14;;;;;;;25.30;5.88;;;6.90;99.90;;;;;;5097067;28;20024;-77
2022/01/27 08:37:39;;;;;;;20.08;5.18;;;6.90;99.90;;;;;;5094652;28;20024;-77
2022/01/27 08:40:08;;;;;;;19.30;5.82;;;6.90;99.90;;;;;;5095844;28;20112;-77
2022/01/27 08:42:33;;;;;;;15.05;4.30;;;6.90;99.90;;;;;;5095379;28;20024;-78
2022/01/27 08:44:59;;;;;;;30.85;4.45;;;7.00;99.90;;;;;;5094087;28;20496;-78
2022/01/27 08:47:26;;;;;;;11.02;3.42;;;7.00;99.90;;;;;;5095329;28;20450;-76
2022/01/27 08:49:51;;;;;;;12.90;4.05;;;7.00;99.90;;;;;;5094800;28;20023;-76
2022/01/27 08:52:17;;;;;;;15.68;4.55;;;7.00;99.90;;;;;;5094777;28;20477;-75
2022/01/27 08:54:42;;;;;;;18.42;4.85;;;7.00;99.90;;;;;;5095799;28;20024;-76
2022/01/27 08:57:08;;;;;;;16.15;4.50;;;7.00;99.90;;;;;;5094387;28;20031;-77
2022/01/27 08:59:34;;;;;;;15.73;4.32;;;7.00;99.90;;;;;;5096677;28;20024;-75
2022/01/27 09:02:00;;;;;;;11.75;4.20;;;7.10;99.90;;;;;;5094301;28;20012;-75
2022/01/27 09:04:25;;;;;;;9.63;3.63;;;7.10;99.90;;;;;;5095417;28;20020;-75
2022/01/27 09:06:51;;;;;;;16.02;4.45;;;7.10;99.90;;;;;;5096192;28;20020;-74
2022/01/27 09:09:16;;;;;;;16.63;5.13;;;7.10;99.90;;;;;;5097303;28;20020;-75
2022/01/27 09:11:46;;;;;;;20.92;5.78;;;7.10;99.90;;;;;;5093767;28;20385;-75
2022/01/27 09:14:13;;;;;;;13.80;3.50;;;7.10;99.90;;;;;;5094770;28;20107;-74
2022/01/27 09:16:38;;;;;;;13.57;5.18;;;7.10;99.90;;;;;;5095374;28;20030;-74
2022/01/27 09:19:04;;;;;;;14.60;4.10;;;7.20;99.90;;;;;;5095165;28;20020;-75
2022/01/27 09:21:43;;;;;;;23.35;5.50;;;7.20;99.90;;;;;;5095011;28;20020;-75
2022/01/27 09:24:14;;;;;;;15.23;4.03;;;7.30;99.90;;;;;;5095075;28;20020;-76
2022/01/27 09:26:50;;;;;;;12.82;3.00;;;7.20;99.90;;;;;;5094800;28;20031;-75
2022/01/27 09:29:18;;;;;;;19.58;5.72;;;7.30;99.90;;;;;;5095877;28;20068;-74
2022/01/27 09:31:44;;;;;;;15.98;5.07;;;7.40;99.90;;;;;;5095804;28;20058;-75
2022/01/27 09:34:10;;;;;;;13.18;4.65;;;7.40;99.90;;;;;;5093516;28;20050;-76
2022/01/27 09:36:36;;;;;;;24.85;4.70;;;7.40;99.90;;;;;;5094465;28;20093;-75
2022/01/27 09:39:01;;;;;;;17.63;4.53;;;7.40;99.90;;;;;;5094310;28;20048;-75
2022/01/27 09:41:28;;;;;;;13.50;4.40;;;7.40;99.90;;;;;;5094551;28;20055;-76
2022/01/27 09:43:54;;;;;;;16.00;5.35;;;7.50;99.90;;;;;;5094712;28;20016;-77
2022/01/27 09:46:21;;;;;;;13.13;4.78;;;7.50;99.90;;;;;;5094134;28;20024;-76
2022/01/27 09:48:49;;;;;;;18.17;5.25;;;7.50;99.90;;;;;;5094060;28;20119;-75
2022/01/27 09:52:01;;;;;;;14.43;5.00;;;7.60;99.90;;;;;;5092801;28;20031;-76
2022/01/27 09:54:02;;;;;;;12.90;4.00;;;7.60;99.90;;;;;;5086819;28;20028;-76
2022/01/27 09:56:31;;;;;;;13.73;4.18;;;7.70;99.90;;;;;;5094205;28;20032;-77
2022/01/27 09:58:59;;;;;;;;;;;7.60;99.90;;;;;;5094572;28;20429;-76
2022/01/27 10:01:24;;;;;;;19.17;5.13;;;7.80;99.90;;;;;;5094061;28;19995;-77
2022/01/27 10:04:03;;;;;;;19.05;4.65;;;7.80;99.90;;;;;;5093682;28;20442;-76
2022/01/27 10:06:31;;;;;;;22.27;5.70;;;7.90;99.90;;;;;;5093762;28;20043;-76
2022/01/27 10:09:11;;;;;;;20.23;4.30;;;7.90;99.90;;;;;;5092395;28;20024;-77
2022/01/27 10:11:37;;;;;;;11.65;4.10;;;8.00;99.90;;;;;;5092333;28;20111;-77
2022/01/27 10:14:17;;;;;;;15.65;4.72;;;7.90;99.90;;;;;;5094112;28;20055;-78
2022/01/27 10:16:44;;;;;;;27.77;4.82;;;7.90;99.90;;;;;;5094875;28;20103;-80
2022/01/27 10:19:11;;;;;;;15.75;4.47;;;7.90;99.90;;;;;;5097898;28;20083;-80
2022/01/27 10:21:38;;;;;;;18.02;5.38;;;7.90;99.90;;;;;;5096198;28;20120;-80
2022/01/27 10:24:25;;;;;;;18.73;3.80;;;7.90;99.90;;;;;;5097089;28;20024;-80
2022/01/27 10:27:22;;;;;;;18.05;3.80;;;8.00;99.90;;;;;;5098082;28;20012;-79
2022/01/27 10:32:39;;;;;;;12.90;4.25;;;8.00;99.90;;;;;;5097915;28;20032;-79
2022/01/27 10:35:06;;;;;;;15.55;3.80;;;8.00;99.90;;;;;;5094391;28;20473;-78
2022/01/27 10:38:01;;;;;;;14.07;3.65;;;8.00;99.90;;;;;;5093928;28;20016;-80
2022/01/27 10:40:30;;;;;;;13.23;3.35;;;8.00;99.90;;;;;;5097097;28;20055;-81
2022/01/27 10:43:00;;;;;;;;;;;8.00;99.90;;;;;;5095420;28;20077;-80
2022/01/27 10:45:26;;;;;;;10.18;3.28;;;8.10;99.90;;;;;;5096827;28;19910;-79
2022/01/27 10:47:51;;;;;;;11.95;1.98;;;8.20;99.90;;;;;;5096043;28;20107;-79
2022/01/27 10:50:17;;;;;;;15.98;2.05;;;8.30;99.90;;;;;;5094364;28;20032;-80
2022/01/27 10:52:51;;;;;;;11.20;1.67;;;8.20;99.90;;;;;;5095072;28;20032;-79
2022/01/27 10:55:20;;;;;;;13.40;3.13;;;8.30;99.90;;;;;;5094030;28;20148;-79
2022/01/27 10:57:55;;;;;;;11.68;1.98;;;8.30;99.90;;;;;;5092817;28;20015;-78
2022/01/27 11:00:23;;;;;;;12.82;2.75;;;8.30;99.90;;;;;;5094233;28;20027;-79
2022/01/27 11:02:58;;;;;;;14.30;3.80;;;8.30;99.90;;;;;;5097036;28;20069;-79
2022/01/27 11:05:26;;;;;;;10.30;3.10;;;8.40;99.90;;;;;;5094854;28;20054;-79
2022/01/27 11:07:52;;;;;;;11.70;2.83;;;8.40;99.90;;;;;;5096676;28;20020;-79
2022/01/27 11:10:20;;;;;;;12.52;2.63;;;8.40;99.90;;;;;;5097915;28;20452;-78
2022/01/27 11:12:46;;;;;;;13.07;2.72;;;8.50;99.90;;;;;;5095172;28;20020;-78
2022/01/27 11:15:14;;;;;;;11.55;2.10;;;8.50;99.90;;;;;;5091745;28;20119;-77
2022/01/27 11:17:41;;;;;;;13.18;3.20;;;8.50;99.90;;;;;;5093677;28;20034;-78
2022/01/27 11:27:46;;;;;;;15.40;1.98;;;8.60;99.90;;;;;;5095555;28;20082;-80
2022/01/27 11:30:18;;;;;;;11.20;1.90;;;8.60;99.90;;;;;;5096507;28;20424;-81
2022/01/27 11:32:59;;;;;;;13.25;1.65;;;8.60;99.90;;;;;;5096742;28;20034;-80
2022/01/27 11:35:25;;;;;;;13.27;2.10;;;8.60;99.90;;;;;;5096006;28;20073;-79
2022/01/27 11:37:57;;;;;;;7.32;1.90;;;8.60;99.90;;;;;;5096868;28;20032;-81
2022/01/27 11:40:37;;;;;;;14.27;1.92;;;8.50;99.90;;;;;;5094220;28;20012;-80
2022/01/27 11:43:14;;;;;;;7.43;1.67;;;8.60;99.90;;;;;;5094374;28;20080;-81
2022/01/27 11:45:42;;;;;;;9.73;1.92;;;8.60;99.90;;;;;;5096049;28;20028;-80
2022/01/27 11:48:11;;;;;;;15.20;2.33;;;8.60;99.90;;;;;;5095420;28;20032;-81
2022/01/27 11:50:38;;;;;;;;;;;8.50;99.90;;;;;;5098602;28;20114;-81
2022/01/27 11:53:06;;;;;;;7.93;1.70;;;8.50;99.90;;;;;;5100406;28;19908;-82
2022/01/27 11:55:40;;;;;;;8.55;2.00;;;8.60;99.90;;;;;;5099162;28;20024;-79
2022/01/27 11:58:23;;;;;;;9.55;0.90;;;8.60;99.90;;;;;;5098257;28;20470;-79
2022/01/27 12:01:03;;;;;;;4.53;1.48;;;8.60;99.90;;;;;;5101147;28;20020;-80
2022/01/27 12:03:29;;;;;;;6.05;1.23;;;8.70;99.90;;;;;;5096239;28;20031;-76
2022/01/27 12:06:14;;;;;;;8.88;1.55;;;8.70;99.90;;;;;;5097550;28;20111;-79
2022/01/27 12:08:39;;;;;;;6.47;1.02;;;8.70;99.90;;;;;;5098994;28;20024;-79
2022/01/27 12:11:08;;;;;;;10.55;2.63;;;8.70;99.90;;;;;;5100347;28;20050;-79
2022/01/27 12:13:44;;;;;;;9.30;1.52;;;8.80;99.90;;;;;;5099214;28;20129;-79
2022/01/27 12:19:10;;;;;;;17.98;1.90;;;8.90;99.90;;;;;;5099101;28;20028;-80
2022/01/27 12:21:45;;;;;;;13.07;1.33;;;8.90;99.90;;;;;;5101272;28;20017;-80
2022/01/27 12:24:11;;;;;;;9.50;1.08;;;9.00;99.90;;;;;;5096085;28;20530;-74
2022/01/27 12:26:47;;;;;;;9.00;1.08;;;9.10;99.90;;;;;;5098430;28;20024;-80
2022/01/27 12:29:23;;;;;;;8.30;1.45;;;9.20;99.90;;;;;;5099185;28;20397;-79
2022/01/27 12:31:51;;;;;;;9.80;0.88;;;9.20;99.90;;;;;;5098118;28;20032;-80
2022/01/27 12:34:18;;;;;;;5.97;0.93;;;9.20;99.90;;;;;;5098313;28;20020;-80
2022/01/27 12:37:07;;;;;;;6.15;1.33;;;9.30;99.90;;;;;;5098866;28;20111;-80
2022/01/27 12:39:39;;;;;;;8.25;1.30;;;9.30;99.90;;;;;;5099930;28;20021;-80
2022/01/27 12:42:13;;;;;;;9.27;1.25;;;9.30;99.90;;;;;;5099629;28;20109;-79
2022/01/27 12:44:41;;;;;;;6.78;0.50;;;9.30;99.90;;;;;;5098532;28;20046;-80
2022/01/27 12:47:16;;;;;;;4.90;0.73;;;9.30;99.90;;;;;;5098806;28;20081;-81
2022/01/27 12:49:48;;;;;;;7.82;0.77;;;9.30;99.90;;;;;;5097552;28;20558;-79
2022/01/27 12:52:28;;;;;;;9.15;1.40;;;9.40;99.90;;;;;;5097132;28;20119;-81
2022/01/27 12:54:53;;;;;;;9.50;1.40;;;9.40;99.90;;;;;;5098152;28;20437;-81
2022/01/27 12:57:36;;;;;;;8.48;1.42;;;9.50;99.90;;;;;;5099018;28;20016;-81
2022/01/27 13:00:05;;;;;;;9.43;1.40;;;9.50;99.90;;;;;;5099659;28;20027;-81
2022/01/27 13:02:32;;;;;;;8.07;0.98;;;9.50;99.90;;;;;;5099585;28;20114;-80
2022/01/27 13:05:02;;;;;;;12.95;1.70;;;9.50;99.90;;;;;;5101313;28;20024;-81
2022/01/27 13:07:29;;;;;;;4.85;0.70;;;9.50;99.90;;;;;;5101635;28;20020;-81
2022/01/27 13:10:08;;;;;;;7.57;1.38;;;9.60;99.90;;;;;;5101645;28;20431;-81
2022/01/27 13:12:42;;;;;;;2.88;0.73;;;9.70;99.90;;;;;;5099579;28;20020;-81
2022/01/27 13:15:14;;;;;;;12.65;0.68;;;9.80;99.90;;;;;;5098893;28;20027;-81
2022/01/27 13:17:52;;;;;;;7.85;0.93;;;9.90;99.90;;;;;;5101800;28;20020;-81
2022/01/27 13:20:26;;;;;;;7.00;1.10;;;9.90;99.90;;;;;;5099439;28;20020;-80
2022/01/27 13:23:08;;;;;;;9.48;0.50;;;9.90;99.90;;;;;;5100182;28;20089;-80
2022/01/27 13:25:41;;;;;;;5.93;1.20;;;10.00;99.90;;;;;;5099465;28;20069;-80
2022/01/27 13:28:10;;;;;;;7.18;0.85;;;10.00;99.90;;;;;;5099407;28;20032;-81
2022/01/27 13:30:36;;;;;;;;;;;10.10;99.90;;;;;;5098359;28;20028;-80
2022/01/27 13:33:06;;;;;;;7.93;0.57;;;10.10;99.90;;;;;;5101041;28;20285;-81
2022/01/27 13:35:33;;;;;;;4.60;0.63;;;10.10;99.90;;;;;;5098696;28;20031;-81
2022/01/27 13:38:09;;;;;;;10.25;1.23;;;10.10;99.90;;;;;;5102600;28;20018;-80
2022/01/27 13:43:20;;;;;;;6.25;0.95;;;10.20;99.90;;;;;;5101956;28;20078;-80